Time;durP1;ratioP1;P1;durP2;ratioP2;P2;SDS_P1;SDS_P2;PMS_P1;PMS_P2;Temp;Humidity;BMP_temperature;BMP_pressure;BME280_temperature;BME280_humidity;BME280_pressure;Samples;Min_cycle;Max_cycle;Signal;HPM_P1;HPM_P2
2021/11/28 00:01:53;;;;;;;7.47;3.97;;;4.90;99.90;;;;;;5041561;28;20674;-87
2021/11/28 00:04:21;;;;;;;5.77;5.30;;;4.90;99.90;;;;;;5040990;28;20242;-83
2021/11/28 00:07:01;;;;;;;6.53;3.53;;;4.80;99.90;;;;;;5034773;28;20260;-84
2021/11/28 00:15:12;;;;;;;4.77;3.13;;;4.50;99.90;;;;;;5002109;28;20247;-82
2021/11/28 00:17:38;;;;;;;5.03;4.20;;;4.50;99.90;;;;;;5009802;28;20780;-80
2021/11/28 00:20:06;;;;;;;3.43;2.80;;;4.40;99.90;;;;;;5027941;28;20225;-83
2021/11/28 00:22:33;;;;;;;3.47;3.27;;;4.30;99.90;;;;;;5041515;28;20619;-85
2021/11/28 00:24:59;;;;;;;4.07;3.40;;;4.20;99.90;;;;;;5036399;28;20268;-82
2021/11/28 00:27:24;;;;;;;4.60;3.13;;;4.10;99.90;;;;;;5015903;28;20225;-86
2021/11/28 00:29:50;;;;;;;4.77;4.37;;;4.20;99.90;;;;;;5044245;28;20221;-82
2021/11/28 00:32:16;;;;;;;3.87;3.20;;;4.10;99.90;;;;;;5059545;28;20260;-83
2021/11/28 00:34:42;;;;;;;10.70;4.83;;;4.10;99.90;;;;;;5027287;28;20309;-83
2021/11/28 00:37:10;;;;;;;5.37;4.23;;;4.10;99.90;;;;;;5007399;28;20682;-84
2021/11/28 00:39:36;;;;;;;6.07;3.40;;;4.00;99.90;;;;;;5056383;28;20284;-84
2021/11/28 00:42:05;;;;;;;4.03;3.27;;;4.00;99.90;;;;;;5057291;28;20241;-85
2021/11/28 00:44:32;;;;;;;8.50;4.87;;;4.00;99.90;;;;;;5023454;28;20203;-84
2021/11/28 00:46:58;;;;;;;6.13;3.90;;;4.00;99.90;;;;;;5013303;28;20253;-85
2021/11/28 00:49:25;;;;;;;5.53;5.13;;;4.10;99.90;;;;;;5015602;28;21252;-84
2021/11/28 00:52:00;;;;;;;3.03;2.83;;;4.20;99.90;;;;;;5036065;28;20316;-84
2021/11/28 00:54:29;;;;;;;6.57;3.90;;;4.20;99.90;;;;;;5010381;28;20766;-85
2021/11/28 00:56:56;;;;;;;6.43;3.53;;;4.20;99.90;;;;;;5026451;28;20221;-82
2021/11/28 00:59:22;;;;;;;5.60;4.83;;;4.30;99.90;;;;;;5027177;28;20217;-86
2021/11/28 01:01:48;;;;;;;4.23;3.93;;;4.30;99.90;;;;;;5027312;28;20223;-84
2021/11/28 01:04:15;;;;;;;8.77;5.50;;;4.30;99.90;;;;;;5038200;28;20229;-87
2021/11/28 01:06:43;;;;;;;6.13;4.83;;;4.40;99.90;;;;;;5045062;28;20564;-86
2021/11/28 01:09:09;;;;;;;4.57;3.97;;;4.50;99.90;;;;;;5030411;28;20229;-85
2021/11/28 01:11:35;;;;;;;3.40;3.10;;;4.20;99.90;;;;;;5046246;28;20700;-85
2021/11/28 01:14:01;;;;;;;2.77;2.57;;;4.00;99.90;;;;;;5031999;28;20225;-87
2021/11/28 01:16:27;;;;;;;6.43;3.27;;;4.00;99.90;;;;;;5035967;28;20218;-82
2021/11/28 01:18:53;;;;;;;4.43;2.47;;;4.00;99.90;;;;;;5021219;28;20227;-84
2021/11/28 01:21:20;;;;;;;4.80;3.97;;;3.90;99.90;;;;;;5037550;28;20235;-81
2021/11/28 01:23:46;;;;;;;4.27;3.40;;;3.90;99.90;;;;;;5018897;28;20222;-84
2021/11/28 01:26:12;;;;;;;5.90;3.63;;;3.90;99.90;;;;;;5058459;28;20209;-82
2021/11/28 01:28:39;;;;;;;8.10;4.17;;;3.80;99.90;;;;;;5042888;28;20226;-82
2021/11/28 01:31:05;;;;;;;3.60;3.23;;;3.90;99.90;;;;;;5032211;28;21122;-85
2021/11/28 01:33:31;;;;;;;2.33;2.20;;;3.90;99.90;;;;;;5020452;28;20218;-84
2021/11/28 01:35:56;;;;;;;5.83;5.30;;;4.00;99.90;;;;;;5024101;28;20191;-87
2021/11/28 01:38:22;;;;;;;4.37;2.40;;;4.00;99.90;;;;;;5042028;28;20198;-84
2021/11/28 01:40:49;;;;;;;6.57;4.67;;;4.00;99.90;;;;;;5025059;28;20221;-82
2021/11/28 01:43:17;;;;;;;5.50;4.27;;;3.90;99.90;;;;;;5030413;28;20214;-83
2021/11/28 01:45:45;;;;;;;6.83;5.30;;;3.90;99.90;;;;;;5054303;28;20234;-85
2021/11/28 01:48:14;;;;;;;4.70;3.57;;;3.90;99.90;;;;;;5028523;28;20245;-83
2021/11/28 01:50:43;;;;;;;3.13;2.90;;;4.00;99.90;;;;;;5045323;28;20226;-82
2021/11/28 01:53:12;;;;;;;3.77;3.47;;;3.90;99.90;;;;;;5045966;28;20514;-86
2021/11/28 01:55:38;;;;;;;3.90;3.47;;;3.80;99.90;;;;;;5028986;28;20246;-84
2021/11/28 01:58:06;;;;;;;6.57;3.27;;;3.90;99.90;;;;;;5024602;28;20296;-84
2021/11/28 02:00:39;;;;;;;5.03;3.37;;;3.80;99.90;;;;;;5004323;28;20221;-83
2021/11/28 02:03:06;;;;;;;5.03;3.87;;;3.70;99.90;;;;;;5036223;28;20232;-85
2021/11/28 02:05:32;;;;;;;8.20;4.27;;;3.60;99.90;;;;;;5045735;28;20198;-82
2021/11/28 02:07:58;;;;;;;5.10;3.83;;;3.60;99.90;;;;;;5024497;28;20716;-82
2021/11/28 02:10:25;;;;;;;7.53;3.10;;;3.60;99.90;;;;;;5023885;28;20234;-83
2021/11/28 02:12:51;;;;;;;3.73;2.30;;;3.60;99.90;;;;;;5043909;28;20253;-83
2021/11/28 02:15:18;;;;;;;4.80;3.20;;;3.70;99.90;;;;;;5044457;28;20582;-83
2021/11/28 02:17:49;;;;;;;7.17;5.23;;;3.70;99.90;;;;;;5044547;28;20202;-83
2021/11/28 02:20:15;;;;;;;5.10;2.83;;;3.70;99.90;;;;;;5045098;28;20202;-83
2021/11/28 02:22:41;;;;;;;3.30;3.00;;;3.70;99.90;;;;;;5046079;28;20308;-83
2021/11/28 02:25:09;;;;;;;5.67;3.40;;;3.70;99.90;;;;;;5060830;28;20639;-84
2021/11/28 02:27:35;;;;;;;3.80;3.50;;;3.60;99.90;;;;;;5045899;28;20962;-84
2021/11/28 02:30:00;;;;;;;3.43;3.23;;;3.60;99.90;;;;;;5044593;28;20233;-84
2021/11/28 02:32:26;;;;;;;5.23;4.23;;;3.60;99.90;;;;;;5045078;28;21006;-86
2021/11/28 02:34:52;;;;;;;6.20;4.57;;;3.70;99.90;;;;;;5017469;28;20222;-84
2021/11/28 02:37:18;;;;;;;5.60;5.07;;;3.70;99.90;;;;;;5052862;28;20222;-85
2021/11/28 02:39:43;;;;;;;4.03;2.67;;;3.70;99.90;;;;;;5044354;28;20233;-85
2021/11/28 02:42:09;;;;;;;5.33;3.97;;;3.80;99.90;;;;;;5039814;28;20957;-82
2021/11/28 02:44:35;;;;;;;7.13;4.50;;;3.80;99.90;;;;;;5058697;28;20214;-84
2021/11/28 02:47:02;;;;;;;4.57;3.40;;;3.90;99.90;;;;;;5025321;28;20720;-85
2021/11/28 02:49:29;;;;;;;3.43;3.27;;;3.80;99.90;;;;;;5040081;28;20305;-84
2021/11/28 02:51:54;;;;;;;3.77;3.50;;;3.90;99.90;;;;;;5033614;28;20235;-84
2021/11/28 02:54:20;;;;;;;5.33;4.90;;;3.90;99.90;;;;;;5024628;28;20257;-84
2021/11/28 02:56:47;;;;;;;3.53;3.03;;;4.00;99.90;;;;;;5026106;28;20282;-85
2021/11/28 02:59:13;;;;;;;9.93;4.67;;;4.00;99.90;;;;;;5045010;28;20189;-82
2021/11/28 03:01:40;;;;;;;7.43;6.40;;;4.10;99.90;;;;;;5044485;28;20237;-82
2021/11/28 03:04:06;;;;;;;9.60;5.77;;;4.10;99.90;;;;;;5043351;28;20218;-84
2021/11/28 03:06:32;;;;;;;5.70;3.93;;;4.20;99.90;;;;;;5059131;28;20217;-83
2021/11/28 03:08:58;;;;;;;1.97;1.87;;;4.20;99.90;;;;;;5043002;28;21084;-84
2021/11/28 03:11:23;;;;;;;6.33;4.50;;;4.10;99.90;;;;;;5047725;28;20268;-82
2021/11/28 03:13:51;;;;;;;3.67;2.60;;;4.00;99.90;;;;;;5030549;28;21220;-84
2021/11/28 03:16:20;;;;;;;6.50;3.30;;;4.10;99.90;;;;;;5061000;28;20218;-83
2021/11/28 03:18:47;;;;;;;2.97;2.77;;;4.20;99.90;;;;;;5036463;28;20754;-83
2021/11/28 03:21:19;;;;;;;3.70;3.40;;;4.30;99.90;;;;;;5060083;28;20700;-81
2021/11/28 03:23:47;;;;;;;3.57;3.27;;;4.30;99.90;;;;;;5060996;28;20187;-83
2021/11/28 03:26:16;;;;;;;5.57;3.33;;;4.30;99.90;;;;;;5029414;28;20281;-84
2021/11/28 03:29:00;;;;;;;4.50;2.70;;;4.20;99.90;;;;;;5028451;28;20218;-81
2021/11/28 03:31:29;;;;;;;5.93;2.70;;;4.10;99.90;;;;;;5036521;28;20730;-84
2021/11/28 03:33:55;;;;;;;3.90;3.00;;;4.10;99.90;;;;;;5057950;28;20230;-84
2021/11/28 03:36:23;;;;;;;2.40;2.20;;;4.10;99.90;;;;;;5039677;28;20321;-83
2021/11/28 03:38:50;;;;;;;4.47;3.57;;;4.10;99.90;;;;;;5054631;28;20197;-84
2021/11/28 03:41:17;;;;;;;6.70;3.47;;;4.10;99.90;;;;;;5027131;28;20194;-83
2021/11/28 03:43:45;;;;;;;2.93;2.77;;;4.00;99.90;;;;;;5044127;28;20224;-83
2021/11/28 03:46:11;;;;;;;3.43;2.33;;;4.00;99.90;;;;;;5033780;28;20226;-83
2021/11/28 03:48:37;;;;;;;4.00;2.93;;;3.90;99.90;;;;;;5035861;28;20217;-85
2021/11/28 03:51:03;;;;;;;2.23;2.03;;;4.00;99.90;;;;;;5043407;28;20226;-83
2021/11/28 03:53:29;;;;;;;2.50;1.67;;;4.10;99.90;;;;;;5027494;28;20309;-84
2021/11/28 03:55:55;;;;;;;1.00;0.90;;;4.10;99.90;;;;;;5027209;28;20601;-84
2021/11/28 03:58:21;;;;;;;2.67;1.70;;;4.20;99.90;;;;;;5027852;28;20238;-83
2021/11/28 04:00:48;;;;;;;2.93;1.40;;;4.20;99.90;;;;;;5036957;28;20567;-83
2021/11/28 04:03:13;;;;;;;1.33;1.33;;;4.20;99.90;;;;;;5045941;28;20711;-83
2021/11/28 04:05:40;;;;;;;3.30;2.23;;;4.20;99.90;;;;;;5046497;28;20190;-84
2021/11/28 04:08:06;;;;;;;3.03;2.83;;;4.20;99.90;;;;;;5046027;28;20213;-84
2021/11/28 04:10:33;;;;;;;0.63;0.63;;;4.20;99.90;;;;;;5046982;28;20230;-84
2021/11/28 04:12:58;;;;;;;0.43;0.43;;;4.20;99.90;;;;;;5042516;28;20214;-83
2021/11/28 04:15:24;;;;;;;2.20;1.67;;;4.30;99.90;;;;;;5059514;28;20279;-84
2021/11/28 04:17:50;;;;;;;1.57;1.37;;;4.40;99.90;;;;;;5026636;28;21496;-82
2021/11/28 04:20:16;;;;;;;1.20;0.97;;;4.50;99.90;;;;;;5060414;28;20611;-82
2021/11/28 04:22:43;;;;;;;1.33;1.27;;;4.50;99.90;;;;;;5026317;28;20241;-80
2021/11/28 04:25:11;;;;;;;2.03;1.40;;;4.50;99.90;;;;;;5025960;28;20227;-82
2021/11/28 04:27:37;;;;;;;0.73;0.73;;;4.50;99.90;;;;;;5023409;28;20304;-81
2021/11/28 04:30:05;;;;;;;0.53;0.53;;;4.60;99.90;;;;;;5018829;28;20230;-86
2021/11/28 04:32:31;;;;;;;0.40;0.40;;;4.60;99.90;;;;;;5028098;28;20195;-87
2021/11/28 04:34:57;;;;;;;0.43;0.43;;;4.80;99.90;;;;;;5026045;28;20775;-85
2021/11/28 04:37:23;;;;;;;0.67;0.67;;;5.00;99.90;;;;;;5042756;28;20561;-85
2021/11/28 04:39:49;;;;;;;0.40;0.40;;;5.20;99.90;;;;;;5042782;28;20219;-82
2021/11/28 04:42:15;;;;;;;0.87;0.33;;;5.20;99.90;;;;;;5032049;28;20283;-85
2021/11/28 04:44:41;;;;;;;0.37;0.37;;;5.20;99.90;;;;;;5052162;28;20190;-86
2021/11/28 04:47:07;;;;;;;0.50;0.50;;;5.10;99.90;;;;;;5043388;28;20200;-86
2021/11/28 04:49:32;;;;;;;11.30;1.03;;;5.10;99.90;;;;;;5042403;28;20332;-88
2021/11/28 04:51:58;;;;;;;0.80;0.80;;;5.20;99.90;;;;;;5032649;28;20780;-85
2021/11/28 04:54:24;;;;;;;1.07;0.97;;;5.20;99.90;;;;;;5021877;28;20982;-86
2021/11/28 04:56:50;;;;;;;0.43;0.43;;;5.30;99.90;;;;;;5024609;28;21310;-88
2021/11/28 04:59:16;;;;;;;0.63;0.63;;;5.30;99.90;;;;;;5051333;28;20202;-85
2021/11/28 05:01:42;;;;;;;0.50;0.50;;;5.30;99.90;;;;;;5044008;28;20732;-85
2021/11/28 05:04:10;;;;;;;0.40;0.40;;;5.30;99.90;;;;;;5029819;28;20215;-85
2021/11/28 05:06:37;;;;;;;1.07;0.97;;;5.40;99.90;;;;;;5006571;28;20210;-83
2021/11/28 05:09:03;;;;;;;0.33;0.27;;;5.40;99.90;;;;;;5005228;28;20661;-84
2021/11/28 05:11:29;;;;;;;0.80;0.80;;;5.50;99.90;;;;;;5038835;28;20639;-84
2021/11/28 05:13:55;;;;;;;3.20;0.90;;;5.50;99.90;;;;;;5058193;28;20229;-86
2021/11/28 05:16:21;;;;;;;0.70;0.70;;;5.50;99.90;;;;;;5042167;28;21099;-85
2021/11/28 05:18:47;;;;;;;0.87;0.70;;;5.40;99.90;;;;;;5042371;28;20746;-85
2021/11/28 05:21:13;;;;;;;0.80;0.80;;;5.40;99.90;;;;;;5030236;28;20226;-88
2021/11/28 05:23:39;;;;;;;0.70;0.70;;;5.30;99.90;;;;;;5028265;28;20198;-85
2021/11/28 05:26:05;;;;;;;0.43;0.43;;;5.30;99.90;;;;;;5028720;28;20190;-85
2021/11/28 05:28:31;;;;;;;0.27;0.27;;;5.30;99.90;;;;;;5046157;28;20225;-88
2021/11/28 05:30:56;;;;;;;0.80;0.30;;;5.30;99.90;;;;;;5042498;28;20337;-85
2021/11/28 05:33:22;;;;;;;0.50;0.50;;;5.30;99.90;;;;;;5040770;28;20659;-85
2021/11/28 05:35:48;;;;;;;1.10;0.90;;;5.40;99.90;;;;;;5042029;28;20214;-84
2021/11/28 05:38:14;;;;;;;0.40;0.40;;;5.40;99.90;;;;;;5025945;28;20292;-86
2021/11/28 05:40:40;;;;;;;0.50;0.50;;;5.40;99.90;;;;;;5026888;28;20246;-86
2021/11/28 05:43:05;;;;;;;1.70;1.60;;;5.40;99.90;;;;;;5026245;28;20743;-84
2021/11/28 05:45:31;;;;;;;1.57;1.07;;;5.40;99.90;;;;;;5041033;28;20265;-84
2021/11/28 05:47:57;;;;;;;0.20;0.20;;;5.40;99.90;;;;;;5044222;28;23732;-85
2021/11/28 05:50:26;;;;;;;0.60;0.60;;;5.40;99.90;;;;;;5045063;28;20213;-85
2021/11/28 05:52:52;;;;;;;0.67;0.67;;;5.50;99.90;;;;;;5026220;28;20206;-83
2021/11/28 05:55:19;;;;;;;0.60;0.43;;;5.40;99.90;;;;;;5041468;28;20264;-84
2021/11/28 05:57:45;;;;;;;1.40;0.77;;;5.40;99.90;;;;;;5033846;28;20224;-82
2021/11/28 06:00:13;;;;;;;1.17;0.87;;;5.30;99.90;;;;;;5039408;28;20285;-83
2021/11/28 06:02:39;;;;;;;0.57;0.57;;;5.30;99.90;;;;;;5025987;28;20198;-86
2021/11/28 06:05:06;;;;;;;1.20;1.10;;;5.30;99.90;;;;;;5045431;28;20284;-84
2021/11/28 06:07:32;;;;;;;0.53;0.53;;;5.30;99.90;;;;;;5028269;28;20221;-84
2021/11/28 06:09:58;;;;;;;1.03;1.00;;;5.30;99.90;;;;;;5036741;28;20237;-86
2021/11/28 06:12:24;;;;;;;4.83;1.50;;;5.20;99.90;;;;;;5039458;28;20304;-84
2021/11/28 06:14:49;;;;;;;2.30;0.87;;;5.20;99.90;;;;;;5025777;28;20238;-84
2021/11/28 06:17:15;;;;;;;0.87;0.87;;;5.20;99.90;;;;;;5025207;28;20190;-85
2021/11/28 06:19:41;;;;;;;0.80;0.80;;;5.20;99.90;;;;;;5040691;28;20237;-84
2021/11/28 06:22:09;;;;;;;1.37;1.37;;;5.20;99.90;;;;;;5045171;28;20213;-84
2021/11/28 06:24:38;;;;;;;0.70;0.70;;;5.30;99.90;;;;;;5044329;28;20715;-85
2021/11/28 06:27:05;;;;;;;12.20;0.83;;;5.30;99.90;;;;;;5033830;28;20233;-85
2021/11/28 06:29:31;;;;;;;0.20;0.20;;;5.40;99.90;;;;;;5058532;28;20219;-85
2021/11/28 06:31:57;;;;;;;0.73;0.73;;;5.40;99.90;;;;;;5044961;28;20245;-85
2021/11/28 06:34:23;;;;;;;0.80;0.80;;;5.40;99.90;;;;;;5030899;28;20685;-85
2021/11/28 06:36:48;;;;;;;1.10;0.83;;;5.40;99.90;;;;;;5033526;28;20312;-85
2021/11/28 06:39:14;;;;;;;0.53;0.53;;;5.50;99.90;;;;;;5027884;28;20226;-85
2021/11/28 06:41:40;;;;;;;2.20;0.60;;;5.50;99.90;;;;;;5043467;28;20214;-85
2021/11/28 06:44:06;;;;;;;0.70;0.70;;;5.50;99.90;;;;;;5025889;28;20217;-85
2021/11/28 06:46:32;;;;;;;0.60;0.57;;;5.50;99.90;;;;;;5044739;28;20225;-85
2021/11/28 06:48:58;;;;;;;0.80;0.80;;;5.60;99.90;;;;;;5061584;28;20233;-85
2021/11/28 06:51:24;;;;;;;1.23;0.80;;;5.60;99.90;;;;;;5035760;28;20290;-86
2021/11/28 06:53:50;;;;;;;0.50;0.50;;;5.50;99.90;;;;;;5050004;28;20192;-85
2021/11/28 06:56:15;;;;;;;0.40;0.40;;;5.50;99.90;;;;;;5048981;28;20190;-86
2021/11/28 06:58:41;;;;;;;0.30;0.30;;;5.60;99.90;;;;;;5049797;28;20685;-86
2021/11/28 07:01:07;;;;;;;0.20;0.20;;;5.60;99.90;;;;;;5047657;28;20217;-86
2021/11/28 07:03:33;;;;;;;5.00;0.83;;;5.70;99.90;;;;;;5049986;28;20241;-84
2021/11/28 07:05:59;;;;;;;0.30;0.30;;;5.70;99.90;;;;;;5029240;28;20215;-82
2021/11/28 07:08:25;;;;;;;0.87;0.87;;;5.70;99.90;;;;;;5044436;28;20244;-85
2021/11/28 07:10:53;;;;;;;0.13;0.13;;;5.70;99.90;;;;;;5045906;28;20234;-84
2021/11/28 07:13:19;;;;;;;0.70;0.70;;;5.60;99.90;;;;;;5040306;28;20653;-86
2021/11/28 07:15:44;;;;;;;1.47;0.50;;;5.60;99.90;;;;;;5031147;28;20214;-84
2021/11/28 07:18:10;;;;;;;0.60;0.60;;;5.50;99.90;;;;;;5043159;28;20202;-85
2021/11/28 07:20:36;;;;;;;0.23;0.23;;;5.50;99.90;;;;;;5029206;28;20206;-89
2021/11/28 07:23:03;;;;;;;0.93;0.43;;;5.50;99.90;;;;;;5022911;28;20218;-87
2021/11/28 07:25:30;;;;;;;0.40;0.40;;;5.60;99.90;;;;;;5032084;28;20245;-83
2021/11/28 07:27:58;;;;;;;0.30;0.30;;;5.60;99.90;;;;;;5038009;28;20225;-85
2021/11/28 07:30:25;;;;;;;0.40;0.40;;;5.50;99.90;;;;;;5047339;28;20261;-83
2021/11/28 07:32:51;;;;;;;0.30;0.30;;;5.30;99.90;;;;;;5047378;28;20606;-85
2021/11/28 07:35:17;;;;;;;0.30;0.30;;;5.00;99.90;;;;;;5047712;28;20197;-84
2021/11/28 07:37:43;;;;;;;6.70;0.40;;;4.90;99.90;;;;;;5047803;28;20289;-85
2021/11/28 07:40:10;;;;;;;0.13;0.13;;;4.90;99.90;;;;;;5046620;28;20228;-85
2021/11/28 07:42:36;;;;;;;0.20;0.20;;;5.00;99.90;;;;;;5029685;28;20210;-83
2021/11/28 07:45:04;;;;;;;0.50;0.50;;;5.20;99.90;;;;;;5042751;28;20218;-84
2021/11/28 07:47:30;;;;;;;1.03;0.40;;;5.20;99.90;;;;;;5028114;28;20202;-85
2021/11/28 07:49:56;;;;;;;36.03;2.50;;;5.20;99.90;;;;;;5042722;28;20235;-85
2021/11/28 07:52:22;;;;;;;0.10;0.10;;;5.10;99.90;;;;;;5023064;28;21167;-83
2021/11/28 07:54:47;;;;;;;0.30;0.30;;;4.90;99.90;;;;;;5035383;28;20225;-81
2021/11/28 07:57:13;;;;;;;0.40;0.40;;;4.80;99.90;;;;;;5030121;28;20226;-85
2021/11/28 07:59:39;;;;;;;0.20;0.20;;;4.70;99.90;;;;;;5046717;28;20202;-82
2021/11/28 08:02:05;;;;;;;0.10;0.10;;;4.70;99.90;;;;;;5030610;28;20562;-84
2021/11/28 08:04:31;;;;;;;0.17;0.17;;;4.70;99.90;;;;;;5025202;28;20219;-85
2021/11/28 08:06:58;;;;;;;0.10;0.10;;;4.70;99.90;;;;;;5027371;28;20502;-83
2021/11/28 08:09:24;;;;;;;0.20;0.20;;;4.70;99.90;;;;;;5033445;28;20229;-86
2021/11/28 08:11:50;;;;;;;0.20;0.20;;;4.70;99.90;;;;;;5055063;28;20329;-85
2021/11/28 08:14:16;;;;;;;0.10;0.10;;;4.70;99.90;;;;;;5057167;28;20625;-84
2021/11/28 08:16:42;;;;;;;0.37;0.33;;;4.80;99.90;;;;;;5011909;28;20226;-83
2021/11/28 08:19:08;;;;;;;1.10;0.30;;;4.70;99.90;;;;;;5019033;28;20300;-83
2021/11/28 08:21:33;;;;;;;0.10;0.10;;;4.70;99.90;;;;;;5037203;28;20250;-83
2021/11/28 08:24:02;;;;;;;0.10;0.10;;;4.70;99.90;;;;;;5058845;28;20575;-83
2021/11/28 08:26:29;;;;;;;0.10;0.10;;;4.70;99.90;;;;;;5027565;28;20198;-83
2021/11/28 08:28:55;;;;;;;0.20;0.20;;;4.80;99.90;;;;;;5024792;28;20245;-83
2021/11/28 08:31:23;;;;;;;0.20;0.20;;;4.80;99.90;;;;;;5024631;28;20233;-85
2021/11/28 08:33:49;;;;;;;0.73;0.70;;;4.90;99.90;;;;;;5039901;28;20213;-87
2021/11/28 08:36:19;;;;;;;0.43;0.43;;;4.90;99.90;;;;;;5048202;28;20222;-89
2021/11/28 08:38:46;;;;;;;0.20;0.20;;;5.00;99.90;;;;;;5046334;28;20208;-93
2021/11/28 08:41:13;;;;;;;0.17;0.17;;;5.00;99.90;;;;;;5027708;28;20194;-88
2021/11/28 08:43:40;;;;;;;0.97;0.80;;;5.10;99.90;;;;;;5061464;28;20230;-90
2021/11/28 08:46:06;;;;;;;0.20;0.20;;;5.10;99.90;;;;;;5029517;28;20217;-89
2021/11/28 08:48:32;;;;;;;0.30;0.30;;;5.20;99.90;;;;;;5035470;28;20218;-90
2021/11/28 08:50:58;;;;;;;1.13;0.70;;;5.20;99.90;;;;;;5042928;28;20290;-90
2021/11/28 08:53:25;;;;;;;0.43;0.43;;;5.20;99.90;;;;;;5044867;28;20595;-90
2021/11/28 08:55:51;;;;;;;0.70;0.70;;;5.20;99.90;;;;;;5026678;28;20223;-89
2021/11/28 08:58:16;;;;;;;1.23;0.43;;;5.20;99.90;;;;;;5038678;28;20228;-90
2021/11/28 09:00:43;;;;;;;0.40;0.40;;;5.20;99.90;;;;;;5029432;28;20786;-89
2021/11/28 09:03:09;;;;;;;0.30;0.30;;;5.30;99.90;;;;;;5046701;28;20221;-89
2021/11/28 09:05:35;;;;;;;0.60;0.60;;;5.60;99.90;;;;;;5030205;28;20209;-90
2021/11/28 09:08:02;;;;;;;0.10;0.10;;;5.60;99.90;;;;;;5026073;28;20230;-88
2021/11/28 09:10:30;;;;;;;0.10;0.10;;;5.80;99.90;;;;;;5031086;28;20243;-90
2021/11/28 09:12:56;;;;;;;8.33;1.17;;;5.90;99.90;;;;;;5033410;28;20285;-92
2021/11/28 09:15:25;;;;;;;0.77;0.77;;;6.00;99.90;;;;;;5019139;28;20234;-94
2021/11/28 09:18:08;;;;;;;0.20;0.20;;;6.00;99.90;;;;;;5028401;28;20199;-90
2021/11/28 09:20:35;;;;;;;0.20;0.20;;;6.00;99.90;;;;;;5046887;28;20197;-94
2021/11/28 09:25:27;;;;;;;0.13;0.13;;;6.10;99.90;;;;;;5026233;28;20591;-93
2021/11/28 09:27:55;;;;;;;6.73;0.67;;;6.20;99.90;;;;;;5059342;28;20221;-92
2021/11/28 09:30:26;;;;;;;0.30;0.30;;;6.30;99.90;;;;;;5032895;28;20226;-84
2021/11/28 09:32:53;;;;;;;0.10;0.10;;;6.50;99.90;;;;;;5045390;28;20198;-91
2021/11/28 09:35:19;;;;;;;0.10;0.10;;;6.60;99.90;;;;;;5046015;28;20198;-88
2021/11/28 09:37:45;;;;;;;0.20;0.20;;;6.60;99.90;;;;;;5046179;28;20225;-86
2021/11/28 09:40:11;;;;;;;0.20;0.20;;;6.60;99.90;;;;;;5045081;28;20233;-88
2021/11/28 09:42:46;;;;;;;0.10;0.10;;;6.70;99.90;;;;;;5045122;28;20248;-91
2021/11/28 09:45:12;;;;;;;0.13;0.13;;;6.60;99.90;;;;;;5059182;28;20222;-89
2021/11/28 09:47:38;;;;;;;0.10;0.10;;;6.60;99.90;;;;;;5058377;28;20202;-86
2021/11/28 09:50:08;;;;;;;2.03;0.83;;;6.60;99.90;;;;;;5025949;28;20225;-87
2021/11/28 09:52:34;;;;;;;0.13;0.13;;;6.60;99.90;;;;;;5031855;28;20241;-88
2021/11/28 09:55:03;;;;;;;0.83;0.83;;;6.60;99.90;;;;;;5033199;28;20218;-86
2021/11/28 09:57:29;;;;;;;0.20;0.20;;;6.70;99.90;;;;;;5024688;28;20222;-86
2021/11/28 09:59:56;;;;;;;0.30;0.30;;;6.70;99.90;;;;;;5025942;28;20564;-84
2021/11/28 10:02:31;;;;;;;0.20;0.20;;;6.70;99.90;;;;;;5026125;28;20187;-87
2021/11/28 10:04:58;;;;;;;0.17;0.17;;;6.60;99.90;;;;;;5025958;28;20257;-87
2021/11/28 10:07:24;;;;;;;3.40;0.40;;;6.60;99.90;;;;;;5032721;28;20464;-87
2021/11/28 10:09:51;;;;;;;0.10;0.10;;;6.50;99.90;;;;;;5041509;28;20284;-85
2021/11/28 10:12:28;;;;;;;0.10;0.10;;;6.40;99.90;;;;;;5040059;28;20701;-89
2021/11/28 10:14:57;;;;;;;3.07;1.07;;;6.30;99.90;;;;;;5057142;28;20202;-85
2021/11/28 10:17:27;;;;;;;2.70;0.23;;;6.30;99.90;;;;;;5029125;28;20221;-86
2021/11/28 10:19:59;;;;;;;0.47;0.47;;;6.40;99.90;;;;;;5047328;28;20226;-86
2021/11/28 10:22:26;;;;;;;5.47;0.40;;;6.40;99.90;;;;;;5032083;28;20234;-86
2021/11/28 10:25:15;;;;;;;0.53;0.53;;;6.40;99.90;;;;;;5058430;28;20253;-84
2021/11/28 10:27:50;;;;;;;0.50;0.50;;;6.40;99.90;;;;;;5024927;28;20693;-87
2021/11/28 10:30:38;;;;;;;0.20;0.20;;;6.40;99.90;;;;;;5057941;28;20300;-87
2021/11/28 10:33:05;;;;;;;2.43;0.43;;;6.30;99.90;;;;;;5029070;28;20249;-86
2021/11/28 10:35:31;;;;;;;2.53;0.33;;;6.30;99.90;;;;;;5047286;28;20197;-84
2021/11/28 10:37:56;;;;;;;0.40;0.30;;;6.30;99.90;;;;;;5026637;28;20236;-84
2021/11/28 10:40:29;;;;;;;0.30;0.30;;;6.40;99.90;;;;;;5044606;28;20585;-86
2021/11/28 10:43:31;;;;;;;0.10;0.10;;;6.40;99.90;;;;;;5029546;28;20274;-87
2021/11/28 10:45:57;;;;;;;6.77;1.50;;;6.40;99.90;;;;;;5040211;28;20235;-84
2021/11/28 10:48:26;;;;;;;0.20;0.20;;;6.50;99.90;;;;;;5040748;28;20215;-85
2021/11/28 10:50:54;;;;;;;2.53;0.87;;;6.50;99.90;;;;;;5038542;28;20194;-85
2021/11/28 10:53:22;;;;;;;0.23;0.23;;;6.60;99.90;;;;;;5026433;28;20281;-86
2021/11/28 10:56:08;;;;;;;1.50;0.80;;;6.60;99.90;;;;;;5058318;28;20209;-87
2021/11/28 10:58:37;;;;;;;0.83;0.83;;;6.70;99.90;;;;;;5041090;28;20234;-87
2021/11/28 11:01:07;;;;;;;0.20;0.20;;;6.70;99.90;;;;;;5052277;28;20238;-85
2021/11/28 11:03:50;;;;;;;0.10;0.10;;;6.80;99.90;;;;;;5043775;28;20292;-86
2021/11/28 11:06:20;;;;;;;0.50;0.50;;;6.80;99.90;;;;;;5034562;28;20222;-85
2021/11/28 11:09:12;;;;;;;0.10;0.10;;;6.90;99.90;;;;;;5035537;28;20299;-88
2021/11/28 11:11:38;;;;;;;0.40;0.40;;;7.10;99.90;;;;;;5047137;28;20225;-83
2021/11/28 11:14:05;;;;;;;4.77;0.40;;;7.10;99.90;;;;;;5034343;28;20198;-85
2021/11/28 11:16:42;;;;;;;0.30;0.30;;;7.20;99.90;;;;;;5053045;28;20290;-88
2021/11/28 11:19:35;;;;;;;0.30;0.30;;;7.20;99.90;;;;;;5057619;28;20228;-87
2021/11/28 11:22:05;;;;;;;0.27;0.27;;;7.10;99.90;;;;;;5052382;28;20226;-88
2021/11/28 11:24:36;;;;;;;0.30;0.30;;;7.00;99.90;;;;;;5040962;28;20437;-85
2021/11/28 11:27:16;;;;;;;0.50;0.50;;;7.10;99.90;;;;;;5037847;28;20368;-85
2021/11/28 11:29:48;;;;;;;0.10;0.10;;;7.20;99.90;;;;;;5020065;28;20225;-85
2021/11/28 11:32:18;;;;;;;0.30;0.30;;;7.30;99.90;;;;;;5025691;28;20191;-85
2021/11/28 11:35:03;;;;;;;0.50;0.50;;;7.30;99.90;;;;;;5031668;28;20226;-83
2021/11/28 11:37:31;;;;;;;0.67;0.67;;;7.50;99.90;;;;;;5024615;28;20230;-82
2021/11/28 11:39:58;;;;;;;0.37;0.37;;;7.50;99.90;;;;;;5038247;28;20291;-84
2021/11/28 11:42:27;;;;;;;0.17;0.17;;;7.60;99.90;;;;;;5028421;28;20232;-84
2021/11/28 11:44:53;;;;;;;0.63;0.33;;;7.70;99.90;;;;;;5049771;28;20182;-82
2021/11/28 11:47:19;;;;;;;0.50;0.50;;;7.50;99.90;;;;;;5047525;28;20649;-84
2021/11/28 11:49:46;;;;;;;1.17;0.20;;;7.40;99.90;;;;;;5046311;28;20700;-84
2021/11/28 11:52:13;;;;;;;0.10;0.10;;;7.20;99.90;;;;;;5030576;28;20287;-84
2021/11/28 11:54:50;;;;;;;0.23;0.23;;;7.10;99.90;;;;;;5022001;28;20381;-85
2021/11/28 11:57:19;;;;;;;0.40;0.40;;;6.90;99.90;;;;;;5028932;28;20222;-87
2021/11/28 12:00:10;;;;;;;1.00;0.20;;;7.00;99.90;;;;;;5044068;28;20882;-87
2021/11/28 12:02:42;;;;;;;3.20;0.33;;;7.20;99.90;;;;;;5044663;28;20199;-83
2021/11/28 12:05:23;;;;;;;4.73;0.73;;;7.30;99.90;;;;;;5025649;28;20234;-85
2021/11/28 12:07:54;;;;;;;0.40;0.40;;;7.20;99.90;;;;;;5032442;28;20997;-85
2021/11/28 12:11:00;;;;;;;0.10;0.10;;;7.20;99.90;;;;;;5043785;28;20712;-85
2021/11/28 12:13:26;;;;;;;0.50;0.50;;;7.10;99.90;;;;;;4968881;28;20276;-83
2021/11/28 12:15:54;;;;;;;0.50;0.50;;;7.10;99.90;;;;;;4972309;28;20636;-84
2021/11/28 12:18:54;;;;;;;0.10;0.10;;;7.10;99.90;;;;;;5007514;28;20308;-87
2021/11/28 12:21:32;;;;;;;0.17;0.17;;;7.00;99.90;;;;;;5003968;28;20301;-82
2021/11/28 12:24:19;;;;;;;0.20;0.20;;;7.00;99.90;;;;;;5035281;28;20306;-84
2021/11/28 12:26:55;;;;;;;0.20;0.20;;;7.10;99.90;;;;;;5024986;28;20196;-85
2021/11/28 12:29:24;;;;;;;0.20;0.20;;;7.10;99.90;;;;;;5043378;28;20214;-83
2021/11/28 12:32:02;;;;;;;6.07;0.50;;;7.10;99.90;;;;;;5025237;28;20215;-82
2021/11/28 12:34:52;;;;;;;0.40;0.40;;;7.10;99.90;;;;;;5021704;28;20341;-84
2021/11/28 12:37:32;;;;;;;0.10;0.10;;;7.10;99.90;;;;;;5053346;28;20264;-84
2021/11/28 12:40:22;;;;;;;0.30;0.30;;;7.10;99.90;;;;;;5038244;28;20293;-84
2021/11/28 12:42:52;;;;;;;3.20;1.70;;;7.10;99.90;;;;;;5047238;28;20271;-85
2021/11/28 12:45:50;;;;;;;0.17;0.17;;;7.10;99.90;;;;;;5037952;28;20217;-84
2021/11/28 12:48:24;;;;;;;0.20;0.20;;;7.20;99.90;;;;;;5041977;28;20242;-83
2021/11/28 12:50:57;;;;;;;0.30;0.30;;;7.30;99.90;;;;;;5027819;28;20253;-83
2021/11/28 12:53:59;;;;;;;0.30;0.30;;;7.30;99.90;;;;;;5063796;28;20271;-82
2021/11/28 12:56:24;;;;;;;2.53;0.30;;;7.30;99.90;;;;;;5042281;28;20336;-84
2021/11/28 12:59:13;;;;;;;0.40;0.40;;;7.30;99.90;;;;;;5047350;28;20621;-82
2021/11/28 13:01:54;;;;;;;0.27;0.27;;;7.20;99.90;;;;;;5046172;28;20210;-83
2021/11/28 13:04:38;;;;;;;0.83;0.83;;;7.20;99.90;;;;;;5053078;28;20263;-84
2021/11/28 13:07:25;;;;;;;0.10;0.10;;;7.20;99.90;;;;;;5052265;28;20218;-84
2021/11/28 13:09:54;;;;;;;0.23;0.23;;;7.10;99.90;;;;;;5038698;28;20750;-84
2021/11/28 13:12:24;;;;;;;0.40;0.40;;;7.10;99.90;;;;;;5053704;28;21186;-86
2021/11/28 13:14:52;;;;;;;0.20;0.20;;;7.10;99.90;;;;;;5047995;28;20196;-86